Terminal Aerodrome Forecast
Issued by NWS Milwaukee/Sullivan, WI

Home | Current Version | Previous Version | Text Only | Print | Product List | Glossary On
Versions: 1 2 3 4 5 6 7 8 9 10 11 12 13 14 15 16 17 18 19 20 21 22 23 24 25 26 27 28
000
FTUS43 KMKX 311743
TAFMKE
TAF
KMKE 311743Z 3118/0124 36026G38KT P6SM OVC035
     FM312300 36019G30KT P6SM BKN040
     FM010700 35014G21KT P6SM BKN040
     FM011500 36011KT P6SM BKN050
     FM011900 01010KT P6SM SCT050
     FM012300 03006KT P6SM FEW050=

USA.gov is the U.S. government's official web portal to all federal, state and local government web resources and services.